Time;durP1;ratioP1;P1;durP2;ratioP2;P2;SDS_P1;SDS_P2;PMS_P1;PMS_P2;Temp;Humidity;BMP_temperature;BMP_pressure;BME280_temperature;BME280_humidity;BME280_pressure;Samples;Min_cycle;Max_cycle;Signal;HPM_P1;HPM_P2
2024/01/31 05:22:32;;;;;;;6.00;4.88;;;;;;;8.01;100.00;102103.63;5102483;27;20763;-33
2024/01/31 05:24:58;;;;;;;7.45;5.45;;;;;;;7.91;100.00;102102.69;5110804;28;20037;-35
2024/01/31 05:27:23;;;;;;;7.82;5.07;;;;;;;7.92;100.00;102103.47;5110274;28;20040;-35
2024/01/31 05:29:48;;;;;;;9.10;5.65;;;;;;;7.84;100.00;102107.66;5105539;28;20071;-35
2024/01/31 05:32:14;;;;;;;7.88;6.05;;;;;;;7.94;100.00;102110.16;5089847;28;20036;-36
2024/01/31 05:34:43;;;;;;;10.25;6.60;;;;;;;8.02;100.00;102113.50;5089911;28;20170;-34
2024/01/31 05:37:09;;;;;;;8.43;6.45;;;;;;;7.92;100.00;102106.22;5089676;28;20036;-35
2024/01/31 05:39:34;;;;;;;7.95;6.00;;;;;;;7.81;100.00;102106.50;5089527;28;20040;-36
2024/01/31 05:42:00;;;;;;;9.10;6.25;;;;;;;7.79;100.00;102106.16;5089540;28;20036;-35
2024/01/31 05:44:25;;;;;;;7.75;6.30;;;;;;;7.72;100.00;102111.91;5089613;28;20032;-35
2024/01/31 05:46:51;;;;;;;10.68;6.60;;;;;;;7.63;100.00;102117.28;5089159;28;20389;-36
2024/01/31 05:49:16;;;;;;;9.02;6.55;;;;;;;7.73;100.00;102121.78;5089223;28;20032;-35
2024/01/31 05:51:41;;;;;;;8.82;6.40;;;;;;;7.66;100.00;102116.41;5089404;28;20123;-36
2024/01/31 05:54:07;;;;;;;9.68;5.88;;;;;;;7.81;100.00;102112.06;5089570;28;20036;-36
2024/01/31 05:56:34;;;;;;;6.30;5.13;;;;;;;7.60;100.00;102126.47;5087844;28;20048;-36
2024/01/31 05:58:59;;;;;;;6.20;4.55;;;;;;;7.63;100.00;102123.59;5089145;28;20055;-35
2024/01/31 06:01:25;;;;;;;9.10;5.13;;;;;;;7.58;100.00;102115.81;5088970;28;20063;-36
2024/01/31 06:03:50;;;;;;;7.20;4.75;;;;;;;7.60;100.00;102126.47;5088065;28;20044;-36
2024/01/31 06:06:15;;;;;;;7.25;5.25;;;;;;;7.63;100.00;102125.59;5088985;28;20028;-35
2024/01/31 06:08:41;;;;;;;6.30;4.57;;;;;;;7.57;100.00;102130.88;5088868;28;20487;-36
2024/01/31 06:11:08;;;;;;;7.68;5.32;;;;;;;7.66;100.00;102122.75;5089345;28;20036;-36
2024/01/31 06:13:34;;;;;;;6.22;4.53;;;;;;;7.66;100.00;102131.06;5089208;28;20063;-35
2024/01/31 06:16:00;;;;;;;8.98;5.65;;;;;;;7.76;100.00;102123.69;5088945;28;20040;-35
2024/01/31 06:18:25;;;;;;;7.97;5.78;;;;;;;7.85;100.00;102131.44;5088550;28;20040;-36
2024/01/31 06:20:50;;;;;;;7.22;5.57;;;;;;;7.83;100.00;102129.09;5088842;28;20112;-36
2024/01/31 06:23:16;;;;;;;8.65;5.70;;;;;;;7.93;100.00;102133.59;5091673;28;20040;-35
2024/01/31 06:25:42;;;;;;;8.52;5.97;;;;;;;7.88;100.00;102123.00;5088952;28;20036;-34
2024/01/31 06:28:07;;;;;;;7.18;5.25;;;;;;;7.77;100.00;102127.25;5088692;28;20044;-35
2024/01/31 06:30:44;;;;;;;5.97;4.70;;;;;;;7.60;100.00;102123.69;5089048;28;20036;-36
2024/01/31 06:33:11;;;;;;;6.10;4.68;;;;;;;7.67;100.00;102124.31;5081184;28;20107;-36
2024/01/31 06:35:39;;;;;;;5.95;5.05;;;;;;;7.65;100.00;102128.75;5077453;28;20029;-36
2024/01/31 06:38:05;;;;;;;7.97;5.43;;;;;;;7.81;100.00;102120.41;5077705;28;20024;-36
2024/01/31 06:40:31;;;;;;;6.43;5.03;;;;;;;7.75;100.00;102135.25;5077017;28;20050;-36
2024/01/31 06:42:57;;;;;;;5.95;3.78;;;;;;;13.04;100.00;102139.06;5077148;28;20415;-31
2024/01/31 06:45:24;;;;;;;5.05;4.03;;;;;;;14.98;93.89;102127.34;5074055;28;20055;-34
2024/01/31 06:47:53;;;;;;;6.60;4.07;;;;;;;14.90;87.36;102122.13;5073895;28;20033;-32
2024/01/31 06:50:20;;;;;;;6.93;4.13;;;;;;;14.61;77.96;102120.09;5073897;28;20811;-35
2024/01/31 06:52:46;;;;;;;6.55;4.63;;;;;;;9.58;100.00;102123.38;5074268;28;20037;-36
2024/01/31 06:55:13;;;;;;;7.35;4.78;;;;;;;8.62;100.00;102125.03;5074194;28;20024;-36
2024/01/31 06:57:38;;;;;;;9.38;5.22;;;;;;;7.79;100.00;102122.81;5073696;28;20028;-34
2024/01/31 07:00:08;;;;;;;6.80;4.82;;;;;;;7.67;100.00;102124.31;5075832;28;20376;-36
2024/01/31 07:02:34;;;;;;;9.07;6.55;;;;;;;8.05;100.00;102132.09;5075686;28;20036;-34
2024/01/31 07:04:59;;;;;;;7.90;5.60;;;;;;;8.19;100.00;102130.97;5074137;28;20063;-36
2024/01/31 07:07:24;;;;;;;7.95;5.85;;;;;;;8.14;100.00;102123.16;5074042;28;20040;-36
2024/01/31 07:09:50;;;;;;;9.55;6.53;;;;;;;8.04;100.00;102122.22;5074129;28;20044;-37
2024/01/31 07:12:15;;;;;;;8.75;6.35;;;;;;;8.07;100.00;102120.56;5074079;28;20541;-37
2024/01/31 07:14:42;;;;;;;8.48;6.00;;;;;;;8.10;100.00;102125.25;5073941;28;20032;-35
2024/01/31 07:17:08;;;;;;;7.20;6.43;;;;;;;8.05;100.00;102132.09;5073782;28;20037;-37
2024/01/31 07:19:33;;;;;;;10.25;6.30;;;;;;;7.97;100.00;102129.97;5073798;28;20041;-36
2024/01/31 07:21:58;;;;;;;9.57;7.05;;;;;;;7.92;100.00;102128.47;5073780;28;20047;-35
2024/01/31 07:24:24;;;;;;;7.65;6.20;;;;;;;7.87;100.00;102140.91;5073643;28;20123;-35
2024/01/31 07:26:49;;;;;;;8.82;6.18;;;;;;;7.80;100.00;102143.84;5073375;28;20403;-34
2024/01/31 07:29:14;;;;;;;8.13;6.93;;;;;;;8.06;100.00;102135.69;5072126;28;20041;-41
2024/01/31 07:31:40;;;;;;;7.00;5.00;;;;;;;8.12;100.00;102125.56;5072145;28;20044;-39
2024/01/31 07:34:05;;;;;;;9.07;5.97;;;;;;;7.74;100.00;102126.16;5072757;28;20543;-37
2024/01/31 07:36:31;;;;;;;9.85;6.35;;;;;;;7.97;100.00;102129.97;5072304;28;20150;-35
2024/01/31 07:38:56;;;;;;;9.70;6.90;;;;;;;8.15;100.00;102144.16;5072258;28;20028;-34
2024/01/31 07:41:22;;;;;;;7.90;5.72;;;;;;;8.07;100.00;102140.00;5071778;28;20460;-36
2024/01/31 07:43:47;;;;;;;8.05;5.95;;;;;;;8.13;100.00;102141.06;5071320;28;20036;-36
2024/01/31 07:46:12;;;;;;;7.75;5.55;;;;;;;8.13;100.00;102143.84;5053868;28;20040;-36
2024/01/31 07:48:38;;;;;;;7.38;6.10;;;;;;;8.20;100.00;102142.88;5072666;28;20566;-37
2024/01/31 07:51:05;;;;;;;8.82;6.15;;;;;;;8.12;100.00;102140.28;5082769;28;20048;-36
2024/01/31 07:53:31;;;;;;;7.60;6.28;;;;;;;8.12;100.00;102134.72;5081761;28;20067;-36
2024/01/31 07:55:57;;;;;;;8.45;6.47;;;;;;;8.06;100.00;102141.25;5071830;28;20113;-37
2024/01/31 07:58:22;;;;;;;8.20;6.50;;;;;;;8.11;100.00;102137.91;5073260;28;20483;-36
2024/01/31 08:00:47;;;;;;;8.45;6.15;;;;;;;8.24;100.00;102133.19;5072952;28;20059;-36
2024/01/31 08:03:13;;;;;;;7.45;5.53;;;;;;;8.21;100.00;102138.84;5073547;28;20032;-35
2024/01/31 08:05:38;;;;;;;8.63;6.53;;;;;;;8.03;100.00;102139.34;5073023;28;20051;-36
2024/01/31 08:08:04;;;;;;;7.90;5.68;;;;;;;7.90;100.00;102150.38;5073080;28;20032;-35
2024/01/31 08:10:29;;;;;;;7.53;5.45;;;;;;;7.75;100.00;102149.16;5072832;28;20476;-34
2024/01/31 08:12:54;;;;;;;9.13;5.47;;;;;;;7.80;100.00;102145.84;5072849;28;20060;-36
2024/01/31 08:15:21;;;;;;;10.02;6.10;;;;;;;7.86;100.00;102153.22;5072928;28;20447;-36
2024/01/31 08:17:47;;;;;;;7.68;6.43;;;;;;;8.00;100.00;102145.75;5072805;28;20037;-36
2024/01/31 08:20:13;;;;;;;7.45;5.97;;;;;;;8.22;100.00;102148.75;5072599;28;20078;-36
2024/01/31 08:22:38;;;;;;;8.10;5.15;;;;;;;8.12;100.00;102147.81;5072572;28;20392;-36
2024/01/31 08:25:04;;;;;;;8.65;5.93;;;;;;;8.38;100.00;102141.22;5072350;28;20419;-35
2024/01/31 08:27:30;;;;;;;8.48;5.88;;;;;;;8.58;100.00;102149.41;5072410;28;20036;-34
2024/01/31 08:29:56;;;;;;;7.35;6.05;;;;;;;8.46;100.00;102143.78;5072953;28;20036;-35
2024/01/31 08:32:21;;;;;;;6.93;5.30;;;;;;;8.38;100.00;102144.00;5074214;28;20040;-36
2024/01/31 08:34:47;;;;;;;7.63;5.80;;;;;;;8.68;100.00;102144.00;5073420;28;20110;-36
2024/01/31 08:37:12;;;;;;;7.32;5.07;;;;;;;8.75;100.00;102141.00;5072343;28;20064;-36
2024/01/31 08:39:38;;;;;;;7.10;5.68;;;;;;;8.86;100.00;102141.50;5072118;28;20110;-35
2024/01/31 08:42:04;;;;;;;8.65;5.78;;;;;;;8.63;100.00;102140.53;5072247;28;20036;-36
2024/01/31 08:44:29;;;;;;;10.60;5.97;;;;;;;8.87;100.00;102140.25;5072051;28;20043;-36
2024/01/31 08:46:55;;;;;;;8.48;6.32;;;;;;;9.00;100.00;102137.50;5072297;28;20036;-36
2024/01/31 08:49:21;;;;;;;8.05;5.90;;;;;;;8.63;100.00;102143.31;5072077;28;20123;-35
2024/01/31 08:51:47;;;;;;;7.18;5.70;;;;;;;8.65;100.00;102139.31;5072269;28;20037;-35
2024/01/31 08:54:13;;;;;;;9.27;5.90;;;;;;;8.54;100.00;102143.16;5072177;28;20075;-35
2024/01/31 08:56:38;;;;;;;9.25;6.18;;;;;;;8.88;100.00;102138.25;5072017;28;20411;-35
2024/01/31 08:59:03;;;;;;;8.43;6.15;;;;;;;9.15;100.00;102143.41;5072063;28;20520;-35
2024/01/31 09:01:29;;;;;;;10.50;6.50;;;;;;;8.97;100.00;102144.72;5072218;28;20040;-34
2024/01/31 09:03:55;;;;;;;11.50;6.40;;;;;;;8.55;100.00;102141.94;5072455;28;20036;-33
2024/01/31 09:06:21;;;;;;;8.88;6.15;;;;;;;8.45;100.00;102136.69;5071665;28;20098;-34
2024/01/31 09:08:48;;;;;;;10.38;7.45;;;;;;;8.44;100.00;102146.22;5071494;28;20108;-34
2024/01/31 09:11:14;;;;;;;8.73;6.72;;;;;;;8.52;100.00;102145.59;5071828;28;20032;-36
2024/01/31 09:13:40;;;;;;;9.10;7.05;;;;;;;8.77;100.00;102144.13;5071770;28;20119;-37
2024/01/31 09:16:06;;;;;;;9.68;6.35;;;;;;;8.66;100.00;102138.06;5071758;28;20036;-35
2024/01/31 09:18:31;;;;;;;11.95;6.97;;;;;;;8.90;100.00;102127.47;5071783;28;20550;-38
2024/01/31 09:20:57;;;;;;;11.50;7.40;;;;;;;9.20;100.00;102124.16;5071645;28;20088;-35
2024/01/31 09:23:22;;;;;;;10.45;6.93;;;;;;;9.25;100.00;102126.41;5071700;28;20041;-36
2024/01/31 09:25:49;;;;;;;8.75;7.38;;;;;;;9.25;100.00;102126.41;5071890;28;20035;-35
2024/01/31 09:28:15;;;;;;;9.85;7.38;;;;;;;9.29;100.00;102124.28;5071566;28;20067;-35
2024/01/31 09:30:43;;;;;;;11.20;7.28;;;;;;;8.96;100.00;102120.13;5071622;28;20080;-35
2024/01/31 09:33:08;;;;;;;11.82;8.70;;;;;;;8.87;100.00;102126.34;5071648;28;20036;-36
2024/01/31 09:35:34;;;;;;;10.45;7.82;;;;;;;9.28;100.00;102133.09;5071865;28;20546;-37
2024/01/31 09:37:59;;;;;;;11.32;7.30;;;;;;;9.40;100.00;102125.94;5071427;28;20046;-35
2024/01/31 09:40:25;;;;;;;11.20;7.93;;;;;;;9.20;100.00;102129.72;5072108;28;20045;-36
2024/01/31 09:42:53;;;;;;;9.95;6.72;;;;;;;9.51;100.00;102126.41;5071621;28;20028;-36
2024/01/31 09:45:21;;;;;;;12.20;8.13;;;;;;;9.25;100.00;102134.75;5072039;28;20028;-35
2024/01/31 09:47:47;;;;;;;9.65;6.45;;;;;;;9.47;100.00;102125.72;5071293;28;20045;-37
2024/01/31 09:50:13;;;;;;;10.30;6.57;;;;;;;9.47;100.00;102120.13;5071611;28;20404;-36
2024/01/31 09:52:40;;;;;;;7.65;5.85;;;;;;;9.18;100.00;102123.84;5071631;28;20041;-36
2024/01/31 09:55:09;;;;;;;10.10;7.40;;;;;;;9.26;100.00;102130.72;5071632;28;20028;-36
2024/01/31 09:57:34;;;;;;;7.53;6.00;;;;;;;9.17;100.00;102119.47;5071524;28;20150;-35
2024/01/31 10:00:03;;;;;;;10.43;6.93;;;;;;;9.46;100.00;102118.59;5071489;28;20475;-35
2024/01/31 10:02:37;;;;;;;;;;;;;;;9.22;100.00;102118.94;5071887;28;20101;-35
2024/01/31 10:05:06;;;;;;;9.05;6.78;;;;;;;9.34;100.00;102114.56;5071670;28;19920;-35
2024/01/31 10:07:31;;;;;;;7.63;6.18;;;;;;;9.17;100.00;102118.69;5072260;28;20062;-36
2024/01/31 10:09:57;;;;;;;7.22;6.10;;;;;;;9.30;100.00;102108.34;5075257;28;20559;-36
2024/01/31 10:12:23;;;;;;;9.38;7.03;;;;;;;9.39;100.00;102102.88;5075589;28;20037;-35
2024/01/31 10:14:52;;;;;;;11.52;7.35;;;;;;;9.41;100.00;102117.16;5073739;28;20507;-36
2024/01/31 10:17:21;;;;;;;11.15;7.78;;;;;;;9.45;100.00;102122.59;5071826;28;20101;-35
2024/01/31 10:19:50;;;;;;;9.23;7.22;;;;;;;9.23;100.00;102122.50;5072805;28;20032;-36
2024/01/31 10:22:16;;;;;;;10.45;7.22;;;;;;;9.28;100.00;102116.38;5076553;28;20056;-36
2024/01/31 10:24:48;;;;;;;11.27;6.95;;;;;;;9.25;100.00;102106.91;5088519;28;20028;-36
2024/01/31 10:27:14;;;;;;;10.00;6.40;;;;;;;9.30;100.00;102105.56;5074242;28;20071;-34
2024/01/31 10:29:40;;;;;;;9.65;6.60;;;;;;;9.58;100.00;102101.09;5074456;28;20491;-37
2024/01/31 10:32:06;;;;;;;8.60;6.82;;;;;;;9.55;100.00;102097.19;5071821;28;20032;-34
2024/01/31 10:34:33;;;;;;;10.20;7.60;;;;;;;9.72;100.00;102102.63;5074346;28;20070;-33
2024/01/31 10:36:59;;;;;;;8.93;6.93;;;;;;;9.64;100.00;102096.50;5074093;28;20079;-33
2024/01/31 10:39:24;;;;;;;11.70;7.63;;;;;;;9.74;100.00;102100.19;5074113;28;20083;-33
2024/01/31 10:41:50;;;;;;;11.90;6.90;;;;;;;9.81;100.00;102088.78;5074420;28;20119;-34
2024/01/31 10:44:16;;;;;;;11.02;7.95;;;;;;;9.68;100.00;102091.59;5071433;28;20028;-34
2024/01/31 10:46:47;;;;;;;8.25;6.68;;;;;;;9.83;100.00;102082.78;5073713;28;20496;-35
2024/01/31 10:49:16;;;;;;;9.48;7.00;;;;;;;9.94;100.00;102083.19;5074072;28;20530;-34
2024/01/31 10:51:47;;;;;;;8.80;6.80;;;;;;;9.93;100.00;102076.81;5074148;28;20035;-34
2024/01/31 10:54:16;;;;;;;8.73;6.53;;;;;;;10.13;98.19;102070.19;5071401;28;20093;-35
2024/01/31 10:56:42;;;;;;;8.30;6.97;;;;;;;10.29;97.83;102072.03;5073976;28;20160;-35
2024/01/31 10:59:08;;;;;;;9.35;6.30;;;;;;;10.39;97.67;102068.09;5074192;28;20484;-33
2024/01/31 11:01:34;;;;;;;10.25;6.90;;;;;;;10.37;96.81;102067.75;5080823;28;20041;-35
2024/01/31 11:04:03;;;;;;;12.73;7.25;;;;;;;10.40;97.33;102061.25;5073704;28;20109;-34
2024/01/31 11:06:41;;;;;;;10.95;7.47;;;;;;;10.35;96.81;102068.22;5074116;28;20119;-35
2024/01/31 11:09:08;;;;;;;9.18;7.13;;;;;;;10.73;94.68;102059.63;5072850;28;20040;-33
2024/01/31 11:11:34;;;;;;;9.65;7.68;;;;;;;10.68;94.79;102056.63;5071214;28;20028;-34
2024/01/31 11:14:09;;;;;;;9.18;7.13;;;;;;;10.86;93.25;102051.16;5074085;28;20473;-34
2024/01/31 11:16:35;;;;;;;11.80;7.32;;;;;;;10.95;94.20;102047.66;5070208;28;20067;-37
2024/01/31 11:19:03;;;;;;;9.93;7.22;;;;;;;11.28;92.64;102047.91;5074530;28;20056;-37
2024/01/31 11:21:37;;;;;;;11.45;7.40;;;;;;;11.09;92.24;102049.88;5074214;28;20047;-35
2024/01/31 11:24:03;;;;;;;9.18;7.38;;;;;;;11.46;88.40;102049.19;5074631;28;20032;-37
2024/01/31 11:26:36;;;;;;;12.90;7.95;;;;;;;10.86;93.14;102045.56;5074405;28;20037;-35
2024/01/31 11:29:03;;;;;;;10.80;8.10;;;;;;;10.57;97.33;102045.13;5074565;28;20395;-34
2024/01/31 11:31:29;;;;;;;11.52;7.20;;;;;;;9.74;100.00;102042.44;5074136;28;20052;-34
2024/01/31 11:33:57;;;;;;;12.63;8.95;;;;;;;10.92;93.85;102031.81;5074150;28;20112;-34
2024/01/31 11:36:23;;;;;;;13.57;8.27;;;;;;;11.64;89.75;102038.06;5074087;28;20159;-36
2024/01/31 11:38:49;;;;;;;11.93;8.15;;;;;;;11.33;91.87;102021.38;5074042;28;20111;-37
2024/01/31 11:41:15;;;;;;;9.40;7.80;;;;;;;12.98;79.69;102018.47;5073754;28;20483;-35
2024/01/31 11:43:40;;;;;;;11.98;8.05;;;;;;;11.88;85.02;102010.31;5073735;28;20119;-37
2024/01/31 11:46:06;;;;;;;12.25;7.55;;;;;;;11.43;86.95;102025.78;5073544;28;20503;-34
2024/01/31 11:48:32;;;;;;;12.40;7.72;;;;;;;11.96;87.29;102019.94;5073532;28;20040;-34
2024/01/31 11:50:58;;;;;;;12.95;8.10;;;;;;;12.57;82.06;102020.78;5073429;28;20038;-34
2024/01/31 11:53:24;;;;;;;14.23;7.60;;;;;;;11.66;85.27;102019.59;5073559;28;20044;-35
2024/01/31 11:55:51;;;;;;;11.35;7.18;;;;;;;12.15;84.95;102012.31;5073323;28;20044;-33
2024/01/31 11:58:16;;;;;;;14.32;8.75;;;;;;;11.97;85.18;102010.28;5073686;28;20395;-34
2024/01/31 12:00:42;;;;;;;12.48;8.02;;;;;;;11.52;88.47;102011.78;5073174;28;20040;-35
2024/01/31 12:03:08;;;;;;;11.13;8.50;;;;;;;12.10;85.51;102013.72;5072444;28;20111;-34
2024/01/31 12:05:34;;;;;;;15.30;8.43;;;;;;;12.43;80.70;102007.47;5073331;28;20052;-36
2024/01/31 12:07:59;;;;;;;10.50;8.18;;;;;;;12.12;82.35;102016.81;5073209;28;20040;-34
2024/01/31 12:10:28;;;;;;;13.50;8.30;;;;;;;11.72;87.41;102027.34;5073010;28;20075;-34
2024/01/31 12:12:56;;;;;;;12.02;7.72;;;;;;;11.54;88.28;102022.53;5073048;28;20036;-34
2024/01/31 12:15:21;;;;;;;10.13;8.10;;;;;;;11.63;90.16;102022.53;5073811;28;20123;-34
2024/01/31 12:17:47;;;;;;;13.25;8.38;;;;;;;12.02;87.90;102015.28;5072473;28;20112;-35
2024/01/31 12:20:12;;;;;;;15.23;8.38;;;;;;;11.85;88.68;102014.81;5072854;28;20402;-34
2024/01/31 12:22:39;;;;;;;9.95;7.50;;;;;;;11.39;90.80;102019.53;5072707;28;20028;-34
2024/01/31 12:25:05;;;;;;;11.93;7.20;;;;;;;11.58;95.18;102017.56;5072769;28;20368;-32
2024/01/31 12:27:31;;;;;;;10.75;7.10;;;;;;;11.36;93.35;102010.06;5072625;28;20075;-32
2024/01/31 12:29:57;;;;;;;10.68;6.70;;;;;;;11.89;92.06;102011.88;5072194;28;20064;-32
2024/01/31 12:32:23;;;;;;;8.50;6.85;;;;;;;11.69;94.36;102008.72;5072565;28;20036;-32
2024/01/31 12:34:48;;;;;;;11.35;7.03;;;;;;;12.16;90.36;101997.06;5072206;28;20090;-32
2024/01/31 12:37:14;;;;;;;10.35;7.20;;;;;;;12.27;86.74;101993.81;5072320;28;20439;-32
2024/01/31 12:39:40;;;;;;;9.82;7.60;;;;;;;12.02;89.54;101998.50;5072533;28;20040;-32
2024/01/31 12:42:08;;;;;;;9.00;6.78;;;;;;;11.47;93.29;102003.25;5070805;28;20043;-32
2024/01/31 12:44:34;;;;;;;9.68;6.50;;;;;;;11.79;95.91;102005.47;5072673;28;20083;-32
2024/01/31 12:47:05;;;;;;;8.90;7.25;;;;;;;11.81;90.09;101996.59;5072239;28;20488;-33
2024/01/31 12:49:33;;;;;;;10.80;7.13;;;;;;;10.91;96.80;102000.31;5071895;28;20048;-44
2024/01/31 12:51:58;;;;;;;;;;;;;;;12.32;87.58;101993.16;5072522;28;20685;-43
2024/01/31 12:54:23;;;;;;;10.50;6.72;;;;;;;11.84;92.59;101998.47;5072033;28;19947;-42
2024/01/31 12:56:49;;;;;;;6.68;5.65;;;;;;;11.54;93.12;101997.38;5071770;28;20036;-42
2024/01/31 12:59:14;;;;;;;10.05;6.88;;;;;;;12.14;91.47;101991.19;5071727;28;20112;-42
2024/01/31 13:01:40;;;;;;;8.18;6.03;;;;;;;12.18;88.08;101991.78;5071709;28;20025;-42
2024/01/31 13:04:05;;;;;;;9.27;6.50;;;;;;;12.05;87.78;101989.16;5071804;28;20033;-42
2024/01/31 13:06:30;;;;;;;7.88;6.55;;;;;;;12.08;88.85;101985.44;5071734;28;20134;-42
2024/01/31 13:08:56;;;;;;;10.65;6.38;;;;;;;12.30;84.41;101968.47;5071540;28;20085;-42
2024/01/31 13:11:22;;;;;;;9.70;6.80;;;;;;;11.50;92.75;101975.16;5071658;28;20078;-43
2024/01/31 13:13:49;;;;;;;8.32;6.70;;;;;;;11.60;89.44;101965.53;5071580;28;20166;-42
2024/01/31 13:16:15;;;;;;;7.60;6.53;;;;;;;11.31;93.63;101965.19;5071467;28;20048;-42
2024/01/31 13:18:40;;;;;;;7.18;6.07;;;;;;;11.47;94.02;101970.50;5071182;28;20028;-40
2024/01/31 13:21:06;;;;;;;12.60;7.63;;;;;;;11.95;92.29;101972.88;5071287;28;20381;-41
2024/01/31 13:23:31;;;;;;;8.40;5.80;;;;;;;12.19;87.22;101964.59;5071523;28;20496;-40
2024/01/31 13:25:57;;;;;;;10.50;6.65;;;;;;;11.66;91.92;101963.69;5071452;28;20047;-43
2024/01/31 13:28:22;;;;;;;7.78;6.35;;;;;;;11.78;91.64;101964.78;5071358;28;20040;-42
2024/01/31 13:30:47;;;;;;;8.23;6.45;;;;;;;12.08;89.20;101945.50;5071367;28;20043;-40
2024/01/31 13:33:13;;;;;;;9.15;6.65;;;;;;;12.01;88.52;101952.19;5071440;28;20032;-42
2024/01/31 13:35:38;;;;;;;9.65;6.63;;;;;;;12.05;87.24;101941.63;5071352;28;20044;-42
2024/01/31 13:38:03;;;;;;;11.18;7.07;;;;;;;11.71;89.61;101948.28;5071146;28;20060;-41
2024/01/31 13:40:30;;;;;;;10.18;7.20;;;;;;;11.03;96.06;101933.63;5070023;28;20071;-42
2024/01/31 13:42:56;;;;;;;8.05;6.72;;;;;;;11.27;93.87;101936.63;5073020;28;20029;-42
2024/01/31 13:45:21;;;;;;;11.15;7.07;;;;;;;11.66;90.65;101930.13;5075405;28;20041;-42
2024/01/31 13:47:47;;;;;;;9.93;7.05;;;;;;;11.79;88.52;101937.59;5075040;28;20036;-42
2024/01/31 13:50:13;;;;;;;8.98;6.82;;;;;;;11.71;89.42;101930.75;5075045;28;20036;-42
2024/01/31 13:52:38;;;;;;;9.82;7.32;;;;;;;11.11;93.87;101920.94;5074737;28;20033;-42
2024/01/31 13:55:04;;;;;;;10.95;6.72;;;;;;;11.40;92.01;101918.50;5075062;28;20048;-42
2024/01/31 13:57:29;;;;;;;8.77;7.05;;;;;;;11.26;93.61;101909.94;5074947;28;20036;-45
2024/01/31 13:59:56;;;;;;;10.55;7.47;;;;;;;11.25;93.62;101911.94;5074961;28;20082;-43
2024/01/31 14:02:22;;;;;;;10.40;7.83;;;;;;;11.32;91.90;101908.06;5074988;28;20040;-43
2024/01/31 14:04:48;;;;;;;9.73;7.00;;;;;;;11.41;92.96;101900.47;5074720;28;20047;-42
2024/01/31 14:07:13;;;;;;;9.07;6.70;;;;;;;11.50;91.16;101910.88;5074801;28;20067;-42
2024/01/31 14:09:39;;;;;;;10.63;7.05;;;;;;;11.43;92.02;101916.78;5074857;28;20415;-43
2024/01/31 14:12:06;;;;;;;11.00;7.93;;;;;;;11.36;92.03;101917.06;5074992;28;20412;-39
2024/01/31 14:14:31;;;;;;;10.25;7.13;;;;;;;11.83;88.12;101910.25;5075071;28;20102;-42
2024/01/31 14:17:00;;;;;;;10.15;7.05;;;;;;;11.35;92.05;101910.72;5074608;28;20091;-43
2024/01/31 14:19:26;;;;;;;11.70;8.02;;;;;;;11.90;89.46;101907.16;5074521;28;20523;-43
2024/01/31 14:21:52;;;;;;;10.65;7.50;;;;;;;10.81;97.94;101909.38;5074507;28;20078;-42
2024/01/31 14:24:17;;;;;;;11.15;7.25;;;;;;;11.22;91.96;101901.69;5074667;28;20063;-43
2024/01/31 14:26:42;;;;;;;7.70;6.00;;;;;;;11.60;87.90;101898.47;5074484;28;20036;-41
2024/01/31 14:29:08;;;;;;;10.07;5.70;;;;;;;11.50;88.03;101885.72;5074534;28;20510;-42
2024/01/31 14:31:34;;;;;;;6.65;5.55;;;;;;;11.70;84.77;101870.50;5074339;28;20040;-42
2024/01/31 14:33:59;;;;;;;8.93;5.40;;;;;;;11.46;83.51;101878.72;5074425;28;20086;-42
2024/01/31 14:36:25;;;;;;;6.82;4.78;;;;;;;11.14;85.43;101878.91;5074427;28;20531;-43
2024/01/31 14:38:50;;;;;;;10.60;5.65;;;;;;;11.02;87.94;101871.44;5074256;28;20036;-41
2024/01/31 14:41:16;;;;;;;7.28;5.15;;;;;;;11.25;84.31;101874.88;5074339;28;20029;-43
2024/01/31 14:43:42;;;;;;;7.53;5.57;;;;;;;11.14;85.60;101873.31;5066164;28;20120;-42
2024/01/31 14:46:07;;;;;;;6.72;5.20;;;;;;;11.17;84.68;101877.97;5074129;28;20177;-39
2024/01/31 14:48:32;;;;;;;7.55;4.85;;;;;;;11.43;82.38;101878.44;5074110;28;20628;-43
2024/01/31 14:50:58;;;;;;;6.93;5.03;;;;;;;11.23;82.81;101880.91;5074100;28;20044;-43
2024/01/31 14:53:23;;;;;;;6.20;4.95;;;;;;;11.10;83.72;101875.47;5073698;28;20040;-42
2024/01/31 14:55:49;;;;;;;6.25;4.60;;;;;;;10.97;83.62;101866.44;5074079;28;20041;-43
2024/01/31 14:58:14;;;;;;;9.18;5.30;;;;;;;10.84;84.82;101855.41;5073810;28;20037;-43
2024/01/31 15:00:40;;;;;;;6.35;4.50;;;;;;;10.65;87.06;101856.59;5073881;28;20059;-42
2024/01/31 15:03:05;;;;;;;6.82;4.50;;;;;;;10.84;84.73;101854.63;5065699;28;20064;-41
2024/01/31 15:05:31;;;;;;;7.20;4.65;;;;;;;10.70;85.60;101865.16;5073923;28;20039;-43
2024/01/31 15:07:56;;;;;;;7.72;4.88;;;;;;;10.61;85.24;101869.94;5073477;28;20492;-43
2024/01/31 15:10:22;;;;;;;6.45;4.63;;;;;;;10.63;85.83;101859.88;5073802;28;20052;-43
2024/01/31 15:12:47;;;;;;;5.38;4.53;;;;;;;10.90;82.38;101853.56;5073626;28;20049;-43
2024/01/31 15:15:12;;;;;;;6.30;4.43;;;;;;;11.08;81.59;101858.41;5073724;28;20036;-43
2024/01/31 15:17:38;;;;;;;6.57;4.45;;;;;;;10.86;83.51;101855.75;5073526;28;20047;-42
2024/01/31 15:20:05;;;;;;;5.65;4.50;;;;;;;11.07;81.91;101850.47;5073479;28;20037;-42
2024/01/31 15:22:30;;;;;;;5.95;4.25;;;;;;;10.85;81.86;101848.59;5073555;28;20480;-42
2024/01/31 15:24:55;;;;;;;6.85;4.68;;;;;;;10.60;83.14;101855.22;5073435;28;20048;-38
2024/01/31 15:27:21;;;;;;;6.95;4.57;;;;;;;10.75;82.89;101858.19;5073247;28;20135;-43
2024/01/31 15:29:46;;;;;;;7.65;4.43;;;;;;;10.68;83.46;101864.84;5073153;28;20044;-43
2024/01/31 15:32:14;;;;;;;6.45;4.47;;;;;;;10.37;85.48;101878.84;5073361;28;20095;-40
2024/01/31 15:34:39;;;;;;;5.85;4.65;;;;;;;10.28;87.94;101878.03;5073446;28;20511;-43
2024/01/31 15:37:05;;;;;;;6.18;4.60;;;;;;;10.47;87.76;101880.44;5072956;28;20036;-43
2024/01/31 15:39:30;;;;;;;8.60;4.68;;;;;;;10.26;88.42;101878.47;5073308;28;20048;-42
2024/01/31 15:41:56;;;;;;;9.32;4.95;;;;;;;10.03;90.31;101879.72;5073135;28;20049;-43
2024/01/31 15:44:22;;;;;;;6.75;4.68;;;;;;;10.05;89.09;101871.69;5073203;28;20051;-42
2024/01/31 15:46:49;;;;;;;8.25;4.90;;;;;;;10.15;89.55;101878.88;5072922;28;20047;-42
2024/01/31 15:49:14;;;;;;;7.47;4.93;;;;;;;10.10;89.18;101875.88;5072865;28;20122;-40
2024/01/31 15:51:46;;;;;;;5.85;4.28;;;;;;;9.97;89.99;101881.56;5072952;28;20495;-43
2024/01/31 15:54:12;;;;;;;5.75;3.88;;;;;;;10.12;89.43;101882.56;5073162;28;20044;-43
2024/01/31 15:56:37;;;;;;;6.80;4.30;;;;;;;10.06;89.98;101886.41;5072860;28;20045;-41
2024/01/31 15:59:03;;;;;;;5.80;3.90;;;;;;;10.10;88.68;101895.41;5072596;28;20027;-39
2024/01/31 16:01:31;;;;;;;5.97;4.38;;;;;;;9.97;90.24;101889.91;5072687;28;20126;-40
2024/01/31 16:03:56;;;;;;;;;;;;;;;9.95;90.32;101886.78;5073003;28;20090;-40
2024/01/31 16:06:21;;;;;;;5.57;4.57;;;;;;;10.01;89.00;101871.81;5071792;28;20396;-42
2024/01/31 16:08:47;;;;;;;6.07;4.35;;;;;;;9.99;88.04;101867.94;5072421;28;20111;-40
2024/01/31 16:11:15;;;;;;;6.25;4.13;;;;;;;9.91;89.25;101875.00;5072432;28;20021;-42
2024/01/31 16:13:41;;;;;;;5.85;4.80;;;;;;;9.82;91.25;101884.06;5072615;28;20086;-37
2024/01/31 16:16:06;;;;;;;7.03;5.07;;;;;;;9.72;92.95;101890.81;5072409;28;20385;-42
2024/01/31 16:18:33;;;;;;;6.65;4.72;;;;;;;9.77;92.21;101884.69;5072318;28;20064;-42
2024/01/31 16:20:59;;;;;;;6.90;4.93;;;;;;;9.75;92.99;101889.91;5070903;28;20033;-42
2024/01/31 16:23:24;;;;;;;7.90;5.55;;;;;;;9.64;93.70;101900.69;5071836;28;20032;-42
2024/01/31 16:25:50;;;;;;;5.72;4.78;;;;;;;9.59;94.40;101892.91;5072059;28;20281;-42
2024/01/31 16:28:17;;;;;;;6.45;4.90;;;;;;;9.59;94.17;101890.13;5072237;28;20111;-42
2024/01/31 16:30:42;;;;;;;5.22;4.72;;;;;;;9.68;92.67;101884.63;5071948;28;20504;-42
2024/01/31 16:33:08;;;;;;;6.68;5.30;;;;;;;9.67;95.05;101880.28;5072292;28;20034;-42
2024/01/31 16:35:34;;;;;;;7.18;4.50;;;;;;;9.46;96.23;101879.81;5072123;28;20131;-40
2024/01/31 16:38:01;;;;;;;5.55;4.65;;;;;;;9.46;95.28;101873.47;5071847;28;20064;-42
2024/01/31 16:40:27;;;;;;;6.63;4.30;;;;;;;9.46;95.91;101881.81;5072130;28;20093;-42